Portada
METAR-TAF:

METAR-TAF

Aeroports :

Aeroport Internacional de Dubai

Dubai, Emirats Àrabs Units

latitud: 25-15-10N, longitud: 055-21-52E, altitud: 8 m

Observació

L'informe es va fer fa 41 minuts, a les 03:00 UTC
Vent 5 kt del Sud-Oest, variant entre Sud-Est i Oest
Temperatura 22°C
Humitat 78%
Pressió 1013 hPa
Visibilitat: 8000 m
Núvols disperses a una alçada de 4000 ft

METAR: OMDB 210300Z 22005KT 140V260 8000 SCT040 22/18 Q1013 BECMG 29012KT

Hora: 07:41 (03:41 UTC)

Pronòstic

L'informe es va fer fa 4 hores i 40 minuts, a les 23:01 UTC
Pronòstic vàlid del 21 a les 00 UTC al 22 a les 06 UTC
Vent 15 kt del Oest/Nord-Oest
Visibilitat: 8000 m
Escasses núvols a una alçada de 3500 ft
Probabilitat 40%
l' 21 a les 00 UTC al 21 a les 04 UTC
Vent 6 kt del Sud-Oest
Evolucionant progressivament
l' 21 a les 16 UTC al 21 a les 18 UTC
Vent 7 kt del Est

TAF: OMDB 202301Z 2100/2206 29015KT 8000 FEW035 PROB40 2100/2104 23006KT BECMG 2116/2118 10007KT

Observacions i pronòstics meteorològics de més de 4000 aeroports (METAR i TAF).

Les estacions disponibles són els punts grocs i vermells al mapa.

Posi el ratolí al punt desitjat per veure el nom de l'estació.

Feu clic per veure les observacions i els pronòstics meteorològics.

Per canviar el mapa: feu clic els botons verds amb una creu de color negre per apropar; al botó verd amb un guió per allunyar la imatge; o en les fletxes verdes per a mapes adjacents.


METAR-TAF: